Time;durP1;ratioP1;P1;durP2;ratioP2;P2;SDS_P1;SDS_P2;PMS_P1;PMS_P2;Temp;Humidity;BMP_temperature;BMP_pressure;BME280_temperature;BME280_humidity;BME280_pressure;Samples;Min_cycle;Max_cycle;Signal;HPM_P1;HPM_P2
2023/08/02 00:02:10;;;;;;;6.53;2.20;;;;;;;;;;5091477;28;20057;-90
2023/08/02 00:04:36;;;;;;;6.35;2.25;;;;;;;;;;5084123;28;20020;-90
2023/08/02 00:07:02;;;;;;;7.10;2.20;;;;;;;;;;5092405;28;20024;-89
2023/08/02 00:09:28;;;;;;;4.97;2.10;;;;;;;;;;5097052;28;20028;-90
2023/08/02 00:11:53;;;;;;;5.53;2.40;;;;;;;;;;5096107;28;20935;-89
2023/08/02 00:14:19;;;;;;;5.25;2.10;;;;;;;;;;5078565;28;20483;-83
2023/08/02 00:16:44;;;;;;;6.32;2.33;;;;;;;;;;5086513;28;20086;-88
2023/08/02 00:19:09;;;;;;;5.30;2.30;;;;;;;;;;5095924;28;20020;-90
2023/08/02 00:21:35;;;;;;;4.18;1.90;;;;;;;;;;5091450;28;20027;-89
2023/08/02 00:24:00;;;;;;;5.32;2.03;;;;;;;;;;5096938;28;20460;-89
2023/08/02 00:26:27;;;;;;;5.38;2.20;;;;;;;;;;5097168;28;20049;-88
2023/08/02 00:28:52;;;;;;;5.75;2.00;;;;;;;;;;5087414;28;20024;-88
2023/08/02 00:31:18;;;;;;;5.13;2.08;;;;;;;;;;5095055;28;20138;-90
2023/08/02 00:33:44;;;;;;;5.60;2.17;;;;;;;;;;5095734;28;20031;-88
2023/08/02 00:36:09;;;;;;;5.18;2.40;;;;;;;;;;5095085;28;20124;-89
2023/08/02 00:38:35;;;;;;;5.25;1.83;;;;;;;;;;5095816;28;20060;-89
2023/08/02 00:41:05;;;;;;;6.07;1.90;;;;;;;;;;5095642;28;20081;-90
2023/08/02 00:43:40;;;;;;;6.32;2.22;;;;;;;;;;5094870;28;20090;-87
2023/08/02 00:46:08;;;;;;;5.22;2.00;;;;;;;;;;5095418;28;20119;-89
2023/08/02 00:48:34;;;;;;;6.60;2.40;;;;;;;;;;5096621;28;20522;-89
2023/08/02 00:51:00;;;;;;;6.68;2.20;;;;;;;;;;5095452;28;20028;-88
2023/08/02 00:53:26;;;;;;;5.80;2.00;;;;;;;;;;5093675;28;20028;-89
2023/08/02 00:55:51;;;;;;;6.07;2.42;;;;;;;;;;5094598;28;20012;-87
2023/08/02 00:58:17;;;;;;;5.35;2.10;;;;;;;;;;5094057;28;20107;-91
2023/08/02 01:00:42;;;;;;;5.22;2.20;;;;;;;;;;5095689;28;20073;-90
2023/08/02 01:03:09;;;;;;;4.78;2.00;;;;;;;;;;5094032;28;20476;-88
2023/08/02 01:05:40;;;;;;;5.20;2.30;;;;;;;;;;5094635;28;20016;-89
2023/08/02 01:08:09;;;;;;;5.78;2.40;;;;;;;;;;5090647;28;20490;-89
2023/08/02 01:10:47;;;;;;;4.93;2.08;;;;;;;;;;5095020;28;20432;-90
2023/08/02 01:13:14;;;;;;;4.80;2.08;;;;;;;;;;5107438;28;20485;-90
2023/08/02 01:15:40;;;;;;;5.13;2.20;;;;;;;;;;5094373;28;20089;-90
2023/08/02 01:18:05;;;;;;;7.70;2.20;;;;;;;;;;5091833;28;20016;-88
2023/08/02 01:20:31;;;;;;;7.10;2.20;;;;;;;;;;5091652;28;20024;-90
2023/08/02 01:22:56;;;;;;;4.43;1.80;;;;;;;;;;5090625;28;20024;-89
2023/08/02 01:25:24;;;;;;;5.65;2.35;;;;;;;;;;5095182;28;20024;-90
2023/08/02 01:28:02;;;;;;;6.13;1.88;;;;;;;;;;5094727;28;20031;-90
2023/08/02 01:30:38;;;;;;;4.85;1.92;;;;;;;;;;5089704;28;20490;-90
2023/08/02 01:33:05;;;;;;;4.28;1.92;;;;;;;;;;5088271;28;20028;-89
2023/08/02 01:35:32;;;;;;;2.88;1.67;;;;;;;;;;5084966;28;20403;-88
2023/08/02 01:37:58;;;;;;;5.18;2.10;;;;;;;;;;5099661;28;20028;-89
2023/08/02 01:40:24;;;;;;;4.65;2.20;;;;;;;;;;5095100;28;20016;-89
2023/08/02 01:42:49;;;;;;;3.25;1.60;;;;;;;;;;5091244;28;20060;-90
2023/08/02 01:45:15;;;;;;;4.38;1.80;;;;;;;;;;5089419;28;20081;-90
2023/08/02 01:47:40;;;;;;;4.70;2.03;;;;;;;;;;5087510;28;20028;-91
2023/08/02 01:50:06;;;;;;;6.70;2.25;;;;;;;;;;5094484;28;20051;-90
2023/08/02 01:52:31;;;;;;;4.85;2.00;;;;;;;;;;5095346;28;20027;-90
2023/08/02 01:54:57;;;;;;;4.32;1.83;;;;;;;;;;5077548;28;20035;-90
2023/08/02 01:57:22;;;;;;;5.18;2.03;;;;;;;;;;5094235;28;20027;-87
2023/08/02 01:59:48;;;;;;;4.43;1.75;;;;;;;;;;5094958;28;20025;-89
2023/08/02 02:02:13;;;;;;;4.60;2.20;;;;;;;;;;5095563;28;20145;-90
2023/08/02 02:04:38;;;;;;;4.38;1.75;;;;;;;;;;5090982;28;20402;-89
2023/08/02 02:07:04;;;;;;;3.45;1.45;;;;;;;;;;5095336;28;20468;-91
2023/08/02 02:09:29;;;;;;;5.72;2.15;;;;;;;;;;5095297;28;20034;-90
2023/08/02 02:11:54;;;;;;;3.80;1.60;;;;;;;;;;5085707;28;20082;-90
2023/08/02 02:14:20;;;;;;;4.30;1.60;;;;;;;;;;5084233;28;20016;-76
2023/08/02 02:16:45;;;;;;;4.05;1.77;;;;;;;;;;5084099;28;20059;-76
2023/08/02 02:19:10;;;;;;;4.35;1.80;;;;;;;;;;5090126;28;20020;-75
2023/08/02 02:21:36;;;;;;;7.57;2.08;;;;;;;;;;5093892;28;20079;-75
2023/08/02 02:24:02;;;;;;;5.30;1.95;;;;;;;;;;5093104;28;20020;-76
2023/08/02 02:26:27;;;;;;;5.78;1.95;;;;;;;;;;5087624;28;20073;-75
2023/08/02 02:28:53;;;;;;;6.78;2.40;;;;;;;;;;5093662;28;20042;-75
2023/08/02 02:31:18;;;;;;;4.15;1.52;;;;;;;;;;5091061;28;20220;-76
2023/08/02 02:33:43;;;;;;;4.70;1.60;;;;;;;;;;5086269;28;20028;-77
2023/08/02 02:36:09;;;;;;;3.55;1.73;;;;;;;;;;5086560;28;20036;-75
2023/08/02 02:38:34;;;;;;;6.35;1.50;;;;;;;;;;5088426;28;20082;-75
2023/08/02 02:40:59;;;;;;;4.03;1.63;;;;;;;;;;5085813;28;20028;-75
2023/08/02 02:43:25;;;;;;;7.78;2.30;;;;;;;;;;5091432;28;20112;-75
2023/08/02 02:45:50;;;;;;;4.25;1.77;;;;;;;;;;5085844;28;20020;-75
2023/08/02 02:48:16;;;;;;;8.15;2.00;;;;;;;;;;5091095;28;20031;-75
2023/08/02 02:50:41;;;;;;;4.22;1.75;;;;;;;;;;5091302;28;20020;-75
2023/08/02 02:53:07;;;;;;;7.03;2.70;;;;;;;;;;5088279;28;20032;-75
2023/08/02 02:55:32;;;;;;;7.80;2.00;;;;;;;;;;5090600;28;20111;-75
2023/08/02 02:57:58;;;;;;;4.07;1.90;;;;;;;;;;5092528;28;20073;-76
2023/08/02 03:00:23;;;;;;;6.68;1.80;;;;;;;;;;5091244;28;20024;-77
2023/08/02 03:02:48;;;;;;;5.18;2.05;;;;;;;;;;5092584;28;20032;-76
2023/08/02 03:05:14;;;;;;;4.20;1.90;;;;;;;;;;5099526;28;20392;-76
2023/08/02 03:07:39;;;;;;;4.13;1.70;;;;;;;;;;5091645;28;20430;-76
2023/08/02 03:10:05;;;;;;;4.95;2.10;;;;;;;;;;5092682;28;20050;-76
2023/08/02 03:12:30;;;;;;;5.10;2.10;;;;;;;;;;5086510;28;20016;-76
2023/08/02 03:14:57;;;;;;;4.53;2.05;;;;;;;;;;5095117;28;20024;-75
2023/08/02 03:17:23;;;;;;;4.75;1.85;;;;;;;;;;5088536;28;20024;-75
2023/08/02 03:19:48;;;;;;;5.90;1.90;;;;;;;;;;5084256;28;20106;-75
2023/08/02 03:22:13;;;;;;;4.55;1.90;;;;;;;;;;5081989;28;20055;-76
2023/08/02 03:24:39;;;;;;;5.80;2.22;;;;;;;;;;5106596;28;20046;-87
2023/08/02 03:27:05;;;;;;;5.45;1.95;;;;;;;;;;5089615;28;20027;-87
2023/08/02 03:29:30;;;;;;;4.05;1.98;;;;;;;;;;5088879;28;20023;-87
2023/08/02 03:31:55;;;;;;;5.95;2.10;;;;;;;;;;5089542;28;20472;-86
2023/08/02 03:34:21;;;;;;;6.75;2.78;;;;;;;;;;5092564;28;20020;-86
2023/08/02 03:36:46;;;;;;;5.70;2.40;;;;;;;;;;5092104;28;20024;-86
2023/08/02 03:39:11;;;;;;;5.60;2.22;;;;;;;;;;5086875;28;20051;-85
2023/08/02 03:41:37;;;;;;;5.05;1.83;;;;;;;;;;5082703;28;20024;-86
2023/08/02 03:44:03;;;;;;;3.95;2.00;;;;;;;;;;5090044;28;20019;-85
2023/08/02 03:46:29;;;;;;;5.28;1.95;;;;;;;;;;5089350;28;20332;-86
2023/08/02 03:48:54;;;;;;;4.57;2.03;;;;;;;;;;5087208;28;20491;-86
2023/08/02 03:51:19;;;;;;;4.43;1.85;;;;;;;;;;5093797;28;20486;-84
2023/08/02 03:53:45;;;;;;;5.53;2.15;;;;;;;;;;5085796;28;20020;-86
2023/08/02 03:56:10;;;;;;;5.22;2.00;;;;;;;;;;5096562;28;20054;-86
2023/08/02 03:58:35;;;;;;;5.82;2.30;;;;;;;;;;5095620;28;20031;-86
2023/08/02 04:01:01;;;;;;;5.45;2.10;;;;;;;;;;5088445;28;20506;-86
2023/08/02 04:03:26;;;;;;;4.63;1.95;;;;;;;;;;5094848;28;20099;-86
2023/08/02 04:05:52;;;;;;;5.75;2.25;;;;;;;;;;5094230;28;20024;-86
2023/08/02 04:08:17;;;;;;;6.38;1.90;;;;;;;;;;5089539;28;20020;-86
2023/08/02 04:10:42;;;;;;;5.47;2.03;;;;;;;;;;5084261;28;20021;-87
2023/08/02 04:13:08;;;;;;;5.57;1.65;;;;;;;;;;5094620;28;20482;-83
2023/08/02 04:15:34;;;;;;;5.57;1.90;;;;;;;;;;5093604;28;20020;-86
2023/08/02 04:18:00;;;;;;;7.72;2.55;;;;;;;;;;5094615;28;20395;-86
2023/08/02 04:20:26;;;;;;;9.25;2.00;;;;;;;;;;5084028;28;20023;-87
2023/08/02 04:22:51;;;;;;;5.55;2.22;;;;;;;;;;5088509;28;20140;-87
2023/08/02 04:25:17;;;;;;;3.63;1.80;;;;;;;;;;5093550;28;20012;-85
2023/08/02 04:27:43;;;;;;;5.75;2.08;;;;;;;;;;5087674;28;20395;-84
2023/08/02 04:30:08;;;;;;;3.63;1.67;;;;;;;;;;5092460;28;20024;-86
2023/08/02 04:32:34;;;;;;;5.28;2.00;;;;;;;;;;5087539;28;20024;-85
2023/08/02 04:35:00;;;;;;;5.45;1.95;;;;;;;;;;5095096;28;20035;-75
2023/08/02 04:37:25;;;;;;;4.40;1.73;;;;;;;;;;5094815;28;20055;-75
2023/08/02 04:39:50;;;;;;;4.45;2.00;;;;;;;;;;5092400;28;20390;-76
2023/08/02 04:42:17;;;;;;;4.60;2.08;;;;;;;;;;5084356;28;20540;-75
2023/08/02 04:44:42;;;;;;;3.70;1.98;;;;;;;;;;5093311;28;20201;-75
2023/08/02 04:47:07;;;;;;;5.10;2.20;;;;;;;;;;5086372;28;20487;-75
2023/08/02 04:49:33;;;;;;;3.67;2.00;;;;;;;;;;5085865;28;20039;-75
2023/08/02 04:51:58;;;;;;;7.13;2.17;;;;;;;;;;5099665;28;20032;-76
2023/08/02 04:54:24;;;;;;;5.10;2.10;;;;;;;;;;5093282;28;20020;-77
2023/08/02 04:56:50;;;;;;;3.95;1.95;;;;;;;;;;5093723;28;20035;-76
2023/08/02 04:59:15;;;;;;;5.32;2.03;;;;;;;;;;5091209;28;20096;-76
2023/08/02 05:01:40;;;;;;;6.38;2.17;;;;;;;;;;5098778;28;20054;-76
2023/08/02 05:04:09;;;;;;;4.60;2.38;;;;;;;;;;5095071;28;20450;-75
2023/08/02 05:06:35;;;;;;;6.15;2.10;;;;;;;;;;5084359;28;20111;-75
2023/08/02 05:09:04;;;;;;;4.72;2.30;;;;;;;;;;5090648;28;20074;-76
2023/08/02 05:11:29;;;;;;;4.97;2.20;;;;;;;;;;5082317;28;20034;-76
2023/08/02 05:13:55;;;;;;;6.72;2.20;;;;;;;;;;5092774;28;20012;-76
2023/08/02 05:16:20;;;;;;;4.82;2.17;;;;;;;;;;5073011;28;20116;-76
2023/08/02 05:18:45;;;;;;;4.30;2.22;;;;;;;;;;5091353;28;20383;-75
2023/08/02 05:21:16;;;;;;;5.40;2.22;;;;;;;;;;5097513;28;20035;-75
2023/08/02 05:23:42;;;;;;;6.13;2.55;;;;;;;;;;5076039;28;20032;-76
2023/08/02 05:26:08;;;;;;;5.95;2.45;;;;;;;;;;5101060;28;20034;-75
2023/08/02 05:28:35;;;;;;;5.20;2.28;;;;;;;;;;5090828;28;20017;-76
2023/08/02 05:31:01;;;;;;;4.95;2.42;;;;;;;;;;5086231;28;20391;-76
2023/08/02 05:33:26;;;;;;;7.07;3.22;;;;;;;;;;5088040;28;20024;-75
2023/08/02 05:35:52;;;;;;;5.22;2.50;;;;;;;;;;5092011;28;20031;-75
2023/08/02 05:38:17;;;;;;;5.28;2.10;;;;;;;;;;5094599;28;20012;-75
2023/08/02 05:40:43;;;;;;;4.75;2.20;;;;;;;;;;5085194;28;20066;-75
2023/08/02 05:43:08;;;;;;;3.90;2.30;;;;;;;;;;5087747;28;20104;-76
2023/08/02 05:45:34;;;;;;;5.47;2.67;;;;;;;;;;5085660;28;20020;-76
2023/08/02 05:47:59;;;;;;;5.60;2.85;;;;;;;;;;5093489;28;20077;-77
2023/08/02 05:50:25;;;;;;;6.47;2.85;;;;;;;;;;5089690;28;20024;-76
2023/08/02 05:52:51;;;;;;;5.22;2.45;;;;;;;;;;5092914;28;20065;-77
2023/08/02 05:55:16;;;;;;;5.82;2.60;;;;;;;;;;5083855;28;20542;-76
2023/08/02 05:57:42;;;;;;;5.97;2.63;;;;;;;;;;5084558;28;20035;-76
2023/08/02 06:00:08;;;;;;;7.18;3.00;;;;;;;;;;5109421;28;20391;-77
2023/08/02 06:02:34;;;;;;;5.68;2.70;;;;;;;;;;5092036;28;20024;-76
2023/08/02 06:05:00;;;;;;;5.38;2.35;;;;;;;;;;5093467;28;20031;-77
2023/08/02 06:07:28;;;;;;;5.57;2.70;;;;;;;;;;5088561;28;20031;-77
2023/08/02 06:09:53;;;;;;;5.13;2.88;;;;;;;;;;5079539;28;20024;-76
2023/08/02 06:12:19;;;;;;;6.93;2.80;;;;;;;;;;5093210;28;20379;-76
2023/08/02 06:14:44;;;;;;;4.25;2.50;;;;;;;;;;5099019;28;20030;-77
2023/08/02 06:17:09;;;;;;;6.35;2.65;;;;;;;;;;5073629;28;20042;-76
2023/08/02 06:19:35;;;;;;;5.72;2.40;;;;;;;;;;5087753;28;20467;-76
2023/08/02 06:22:00;;;;;;;4.95;2.50;;;;;;;;;;5094617;28;20085;-77
2023/08/02 06:24:26;;;;;;;5.15;2.40;;;;;;;;;;5085236;28;20020;-76
2023/08/02 06:26:51;;;;;;;5.30;2.55;;;;;;;;;;5083828;28;20094;-76
2023/08/02 06:29:16;;;;;;;4.60;2.35;;;;;;;;;;5083344;28;20427;-76
2023/08/02 06:31:42;;;;;;;4.43;2.28;;;;;;;;;;5088565;28;20110;-77
2023/08/02 06:34:07;;;;;;;4.63;2.30;;;;;;;;;;5081517;28;20027;-76
2023/08/02 06:36:34;;;;;;;3.28;2.00;;;;;;;;;;5095017;28;20028;-76
2023/08/02 06:38:59;;;;;;;3.78;2.10;;;;;;;;;;5087060;28;20088;-77
2023/08/02 06:41:25;;;;;;;3.67;2.08;;;;;;;;;;5088122;28;20430;-76
2023/08/02 06:43:50;;;;;;;5.85;2.40;;;;;;;;;;5087012;28;20059;-76
2023/08/02 06:46:16;;;;;;;4.70;2.22;;;;;;;;;;5089255;28;20049;-76
2023/08/02 06:48:41;;;;;;;4.63;2.28;;;;;;;;;;5082523;28;20062;-76
2023/08/02 06:51:13;;;;;;;5.57;2.42;;;;;;;;;;5089865;28;20043;-76
2023/08/02 06:53:39;;;;;;;3.97;2.20;;;;;;;;;;5078644;28;20071;-89
2023/08/02 06:56:15;;;;;;;5.38;2.40;;;;;;;;;;5088077;28;20024;-89
2023/08/02 06:58:41;;;;;;;4.43;2.10;;;;;;;;;;5088200;28;20100;-88
2023/08/02 07:01:12;;;;;;;4.82;2.17;;;;;;;;;;5090807;28;20029;-86
2023/08/02 07:03:38;;;;;;;3.17;1.80;;;;;;;;;;5090665;28;20024;-86
2023/08/02 07:06:11;;;;;;;2.97;1.70;;;;;;;;;;5092080;28;20496;-87
2023/08/02 07:08:38;;;;;;;2.45;1.58;;;;;;;;;;5092520;28;20464;-85
2023/08/02 07:11:04;;;;;;;3.00;1.55;;;;;;;;;;5091238;28;20028;-85
2023/08/02 07:13:30;;;;;;;3.00;1.55;;;;;;;;;;5091247;28;20486;-88
2023/08/02 07:15:55;;;;;;;3.58;1.67;;;;;;;;;;5094958;28;20399;-86
2023/08/02 07:18:21;;;;;;;2.10;1.40;;;;;;;;;;5090631;28;20016;-87
2023/08/02 07:20:46;;;;;;;2.53;1.33;;;;;;;;;;5091170;28;20450;-88
2023/08/02 07:23:12;;;;;;;1.70;1.20;;;;;;;;;;5091177;28;20020;-88
2023/08/02 07:25:37;;;;;;;2.40;1.20;;;;;;;;;;5088006;28;20051;-87
2023/08/02 07:28:03;;;;;;;2.00;1.27;;;;;;;;;;5087342;28;20019;-86
2023/08/02 07:30:28;;;;;;;3.10;1.40;;;;;;;;;;5085835;28;20073;-85
2023/08/02 07:32:54;;;;;;;2.25;1.20;;;;;;;;;;5089055;28;20077;-87
2023/08/02 07:35:19;;;;;;;2.53;1.20;;;;;;;;;;5074305;28;20032;-82
2023/08/02 07:37:44;;;;;;;2.45;1.15;;;;;;;;;;5090837;28;20355;-86
2023/08/02 07:40:10;;;;;;;2.78;1.27;;;;;;;;;;5091030;28;20020;-85
2023/08/02 07:42:35;;;;;;;1.55;0.90;;;;;;;;;;5095278;28;20024;-85
2023/08/02 07:45:06;;;;;;;1.90;1.15;;;;;;;;;;5084153;28;20012;-85
2023/08/02 07:47:32;;;;;;;2.45;1.00;;;;;;;;;;5082406;28;20472;-84
2023/08/02 07:49:57;;;;;;;1.88;1.00;;;;;;;;;;5082643;28;20077;-85
2023/08/02 07:52:23;;;;;;;2.17;1.10;;;;;;;;;;5086264;28;20466;-85
2023/08/02 07:54:48;;;;;;;4.68;1.30;;;;;;;;;;5091051;28;20036;-85
2023/08/02 07:57:14;;;;;;;1.92;1.15;;;;;;;;;;5084673;28;20030;-84
2023/08/02 07:59:39;;;;;;;2.70;1.20;;;;;;;;;;5090803;28;20491;-85
2023/08/02 08:02:05;;;;;;;1.50;0.98;;;;;;;;;;5083914;28;20016;-85
2023/08/02 08:04:31;;;;;;;1.98;0.93;;;;;;;;;;5090854;28;20152;-84
2023/08/02 08:06:56;;;;;;;2.22;1.20;;;;;;;;;;5090668;28;20024;-85
2023/08/02 08:09:24;;;;;;;2.38;1.20;;;;;;;;;;5088950;28;20069;-86
2023/08/02 08:11:50;;;;;;;1.63;1.00;;;;;;;;;;5089845;28;20066;-86
2023/08/02 08:14:15;;;;;;;2.53;1.10;;;;;;;;;;5091846;28;20423;-86
2023/08/02 08:16:41;;;;;;;2.08;1.20;;;;;;;;;;5092141;28;20089;-85
2023/08/02 08:19:06;;;;;;;1.85;1.10;;;;;;;;;;5087518;28;20027;-85
2023/08/02 08:21:31;;;;;;;2.63;1.50;;;;;;;;;;5087663;28;20020;-85
2023/08/02 08:23:57;;;;;;;2.40;1.23;;;;;;;;;;5077809;28;20069;-85
2023/08/02 08:26:23;;;;;;;1.45;1.20;;;;;;;;;;5091759;28;20051;-86
2023/08/02 08:28:49;;;;;;;1.63;1.15;;;;;;;;;;5089653;28;20028;-87
2023/08/02 08:31:14;;;;;;;1.77;1.25;;;;;;;;;;5093407;28;20024;-85
2023/08/02 08:33:39;;;;;;;2.65;1.55;;;;;;;;;;5090320;28;20059;-86
2023/08/02 08:36:13;;;;;;;2.22;1.10;;;;;;;;;;5078033;28;20021;-84
2023/08/02 08:38:38;;;;;;;1.30;1.00;;;;;;;;;;5089949;28;20422;-85
2023/08/02 08:41:03;;;;;;;1.35;1.02;;;;;;;;;;5093466;28;20039;-86
2023/08/02 08:43:29;;;;;;;1.52;0.90;;;;;;;;;;5094030;28;20031;-86
2023/08/02 08:45:56;;;;;;;1.45;1.02;;;;;;;;;;5093324;28;20022;-85
2023/08/02 08:48:22;;;;;;;1.70;1.20;;;;;;;;;;5094968;28;20031;-86
2023/08/02 08:50:49;;;;;;;2.03;1.20;;;;;;;;;;5092679;28;20103;-86
2023/08/02 08:53:22;;;;;;;2.55;1.20;;;;;;;;;;5093659;28;20028;-84
2023/08/02 08:55:52;;;;;;;1.67;1.20;;;;;;;;;;5094498;28;20107;-86
2023/08/02 08:58:18;;;;;;;2.45;1.13;;;;;;;;;;5083525;28;20434;-86
2023/08/02 09:00:44;;;;;;;1.67;1.20;;;;;;;;;;5092878;28;20016;-85
2023/08/02 09:03:12;;;;;;;1.83;1.33;;;;;;;;;;5093527;28;20032;-85
2023/08/02 09:05:40;;;;;;;2.47;1.45;;;;;;;;;;5094752;28;20020;-87
2023/08/02 09:08:06;;;;;;;1.83;1.30;;;;;;;;;;5092135;28;20059;-85
2023/08/02 09:10:33;;;;;;;2.28;1.42;;;;;;;;;;5092767;28;20059;-86
2023/08/02 09:12:58;;;;;;;2.28;1.40;;;;;;;;;;5092116;28;20387;-86
2023/08/02 09:15:24;;;;;;;2.13;1.50;;;;;;;;;;5097772;28;20024;-76
2023/08/02 09:17:54;;;;;;;2.53;1.30;;;;;;;;;;5094671;28;20174;-76
2023/08/02 09:20:22;;;;;;;1.73;1.38;;;;;;;;;;5092045;28;20016;-76
2023/08/02 09:22:48;;;;;;;1.83;1.20;;;;;;;;;;5099382;28;20020;-76
2023/08/02 09:25:28;;;;;;;2.53;1.20;;;;;;;;;;5091350;28;20031;-75
2023/08/02 09:27:56;;;;;;;2.42;1.45;;;;;;;;;;5087268;28;20113;-76
2023/08/02 09:30:30;;;;;;;2.22;1.48;;;;;;;;;;5091365;28;20351;-77
2023/08/02 09:33:00;;;;;;;2.50;1.70;;;;;;;;;;5088713;28;20114;-76
2023/08/02 09:35:26;;;;;;;2.63;1.50;;;;;;;;;;5086278;28;20391;-76
2023/08/02 09:37:52;;;;;;;2.00;1.60;;;;;;;;;;5092871;28;20480;-77
2023/08/02 09:40:17;;;;;;;2.38;1.63;;;;;;;;;;5093790;28;20064;-75
2023/08/02 09:42:43;;;;;;;2.55;1.77;;;;;;;;;;5094303;28;20024;-75
2023/08/02 09:45:09;;;;;;;2.80;1.90;;;;;;;;;;5088961;28;20020;-76
2023/08/02 09:47:34;;;;;;;2.28;1.63;;;;;;;;;;5092431;28;20024;-76
2023/08/02 09:50:08;;;;;;;2.50;1.80;;;;;;;;;;5090851;28;20368;-77
2023/08/02 09:52:35;;;;;;;2.53;1.70;;;;;;;;;;5095949;28;20063;-76
2023/08/02 09:55:01;;;;;;;2.70;1.90;;;;;;;;;;5083989;28;20021;-75
2023/08/02 09:57:31;;;;;;;2.60;1.90;;;;;;;;;;5102245;28;20024;-76
2023/08/02 10:00:06;;;;;;;2.47;2.00;;;;;;;;;;5088310;28;20031;-76
2023/08/02 10:02:34;;;;;;;2.95;1.83;;;;;;;;;;5085321;28;20020;-77
2023/08/02 10:05:02;;;;;;;2.35;1.90;;;;;;;;;;5087980;28;20032;-75
2023/08/02 10:07:53;;;;;;;5.65;1.75;;;;;;;;;;5095356;28;20047;-75
2023/08/02 10:10:31;;;;;;;2.53;1.70;;;;;;;;;;5080568;28;20388;-75
2023/08/02 10:13:01;;;;;;;3.10;2.00;;;;;;;;;;5085438;28;20436;-76
2023/08/02 10:15:27;;;;;;;2.63;1.73;;;;;;;;;;5085365;28;20024;-76
2023/08/02 10:17:55;;;;;;;2.20;1.73;;;;;;;;;;5092981;28;20020;-77
2023/08/02 10:20:20;;;;;;;2.88;2.13;;;;;;;;;;5092675;28;20031;-76
2023/08/02 10:22:47;;;;;;;2.00;1.55;;;;;;;;;;5090423;28;20084;-76
2023/08/02 10:25:16;;;;;;;2.05;1.52;;;;;;;;;;5096355;28;20479;-86
2023/08/02 10:27:41;;;;;;;2.70;1.60;;;;;;;;;;5092898;28;20036;-87
2023/08/02 10:30:08;;;;;;;2.53;1.58;;;;;;;;;;5091238;28;20027;-88
2023/08/02 10:32:34;;;;;;;2.00;1.58;;;;;;;;;;5082291;28;20103;-85
2023/08/02 10:34:59;;;;;;;1.90;1.30;;;;;;;;;;5091694;28;20591;-87
2023/08/02 10:37:52;;;;;;;1.85;1.20;;;;;;;;;;5084033;28;20016;-87
2023/08/02 10:40:21;;;;;;;1.90;1.08;;;;;;;;;;5085353;28;20508;-87
2023/08/02 10:43:04;;;;;;;1.95;1.27;;;;;;;;;;5089800;28;20028;-87
2023/08/02 10:45:30;;;;;;;1.73;1.20;;;;;;;;;;5084926;28;20391;-87
2023/08/02 10:48:28;;;;;;;2.47;1.65;;;;;;;;;;5091660;28;20028;-87
2023/08/02 10:50:53;;;;;;;4.53;1.98;;;;;;;;;;5099577;28;20024;-87
2023/08/02 10:53:19;;;;;;;4.25;2.05;;;;;;;;;;5090730;28;20035;-86
2023/08/02 10:56:02;;;;;;;5.90;2.17;;;;;;;;;;5091329;28;20383;-87
2023/08/02 10:58:44;;;;;;;3.47;2.20;;;;;;;;;;5091140;28;20024;-86
2023/08/02 11:01:12;;;;;;;3.08;2.17;;;;;;;;;;5092380;28;20503;-86
2023/08/02 11:03:39;;;;;;;4.63;1.88;;;;;;;;;;5091007;28;20387;-87
2023/08/02 11:06:04;;;;;;;4.15;2.13;;;;;;;;;;5091245;28;20035;-88
2023/08/02 11:08:43;;;;;;;2.97;2.15;;;;;;;;;;5080843;28;20023;-87
2023/08/02 11:11:09;;;;;;;3.10;2.15;;;;;;;;;;5090847;28;20016;-86
2023/08/02 11:13:40;;;;;;;5.38;2.20;;;;;;;;;;5094169;28;20024;-85
2023/08/02 11:16:06;;;;;;;6.82;2.08;;;;;;;;;;5091831;28;20055;-85
2023/08/02 11:18:33;;;;;;;5.53;1.80;;;;;;;;;;5084039;28;20027;-85
2023/08/02 11:21:12;;;;;;;3.53;2.10;;;;;;;;;;5084585;28;20392;-85
2023/08/02 11:23:38;;;;;;;3.10;2.17;;;;;;;;;;5077764;28;20126;-85
2023/08/02 11:26:12;;;;;;;3.53;2.15;;;;;;;;;;5092116;28;20041;-85
2023/08/02 11:28:44;;;;;;;2.25;1.60;;;;;;;;;;5085667;28;20512;-85
2023/08/02 11:31:13;;;;;;;2.45;1.60;;;;;;;;;;5094139;28;20031;-85
2023/08/02 11:33:40;;;;;;;1.50;0.90;;;;;;;;;;5088810;28;20035;-83
2023/08/02 11:36:05;;;;;;;1.98;0.90;;;;;;;;;;5090564;28;20028;-85
2023/08/02 11:38:31;;;;;;;1.27;0.73;;;;;;;;;;5092560;28;20024;-84
2023/08/02 11:40:57;;;;;;;0.95;0.73;;;;;;;;;;5087710;28;20070;-85
2023/08/02 11:43:34;;;;;;;2.20;1.10;;;;;;;;;;5089088;28;20028;-84
2023/08/02 11:45:59;;;;;;;3.45;1.23;;;;;;;;;;5084825;28;20486;-84
2023/08/02 11:48:25;;;;;;;10.07;2.10;;;;;;;;;;5086362;28;20017;-84
2023/08/02 11:50:52;;;;;;;3.20;1.83;;;;;;;;;;5088333;28;20494;-84
2023/08/02 11:53:18;;;;;;;3.58;2.10;;;;;;;;;;5075268;28;20085;-84
2023/08/02 11:55:43;;;;;;;5.18;2.35;;;;;;;;;;5089514;28;20028;-84
2023/08/02 11:58:09;;;;;;;4.88;2.92;;;;;;;;;;5088958;28;20102;-84
2023/08/02 12:00:36;;;;;;;4.80;2.92;;;;;;;;;;5085139;28;20097;-84
2023/08/02 12:03:15;;;;;;;4.90;2.10;;;;;;;;;;5090190;28;20127;-85
2023/08/02 12:05:41;;;;;;;4.55;1.90;;;;;;;;;;5094304;28;20074;-86
2023/08/02 12:08:13;;;;;;;4.30;1.80;;;;;;;;;;5094824;28;20487;-85
2023/08/02 12:10:40;;;;;;;6.40;1.98;;;;;;;;;;5088387;28;20476;-85
2023/08/02 12:13:14;;;;;;;4.15;1.80;;;;;;;;;;5094805;28;20094;-85
2023/08/02 12:15:44;;;;;;;4.38;1.98;;;;;;;;;;5092106;28;20024;-84
2023/08/02 12:18:09;;;;;;;5.90;1.75;;;;;;;;;;5094483;28;20051;-85
2023/08/02 12:20:35;;;;;;;8.07;1.80;;;;;;;;;;5091290;28;20459;-85
2023/08/02 12:23:01;;;;;;;7.03;1.80;;;;;;;;;;5094142;28;20058;-85
2023/08/02 12:25:40;;;;;;;5.35;1.50;;;;;;;;;;5089972;28;20020;-86
2023/08/02 12:28:07;;;;;;;6.43;1.85;;;;;;;;;;5086868;28;20103;-84
2023/08/02 12:30:32;;;;;;;6.30;1.73;;;;;;;;;;5086268;28;20020;-85
2023/08/02 12:32:58;;;;;;;6.53;1.80;;;;;;;;;;5098795;28;20365;-86
2023/08/02 12:35:24;;;;;;;7.38;1.80;;;;;;;;;;5089608;28;20124;-85
2023/08/02 12:37:53;;;;;;;8.55;1.75;;;;;;;;;;5095531;28;20485;-86
2023/08/02 12:40:18;;;;;;;6.25;1.73;;;;;;;;;;5095185;28;20031;-86
2023/08/02 12:42:44;;;;;;;6.50;1.75;;;;;;;;;;5094264;28;20020;-86
2023/08/02 12:45:10;;;;;;;5.47;1.90;;;;;;;;;;5091547;28;20026;-77
2023/08/02 12:47:35;;;;;;;4.18;1.98;;;;;;;;;;5076715;28;20114;-76
2023/08/02 12:50:01;;;;;;;5.63;1.80;;;;;;;;;;5094991;28;20133;-76
2023/08/02 12:52:27;;;;;;;6.53;1.60;;;;;;;;;;5093510;28;20043;-76
2023/08/02 12:54:52;;;;;;;6.78;1.33;;;;;;;;;;5084260;28;20395;-77
2023/08/02 12:57:17;;;;;;;5.40;1.48;;;;;;;;;;5093479;28;20024;-77
2023/08/02 12:59:43;;;;;;;4.05;1.50;;;;;;;;;;5093723;28;20110;-77
2023/08/02 13:02:08;;;;;;;7.90;1.98;;;;;;;;;;5092743;28;20070;-77
2023/08/02 13:04:34;;;;;;;7.93;1.70;;;;;;;;;;5090411;28;20058;-77
2023/08/02 13:06:59;;;;;;;6.72;1.45;;;;;;;;;;5094894;28;20441;-76
2023/08/02 13:09:25;;;;;;;7.22;1.75;;;;;;;;;;5091674;28;20059;-77
2023/08/02 13:11:51;;;;;;;5.97;1.40;;;;;;;;;;5095133;28;20032;-77
2023/08/02 13:14:17;;;;;;;4.82;1.25;;;;;;;;;;5094103;28;20024;-77
2023/08/02 13:16:42;;;;;;;6.78;1.88;;;;;;;;;;5097409;28;20497;-77
2023/08/02 13:19:08;;;;;;;3.35;1.40;;;;;;;;;;5075906;28;20031;-78
2023/08/02 13:21:33;;;;;;;6.38;1.35;;;;;;;;;;5093231;28;20429;-77
2023/08/02 13:23:59;;;;;;;4.25;1.35;;;;;;;;;;5094504;28;20027;-77
2023/08/02 13:26:24;;;;;;;7.85;1.67;;;;;;;;;;5092305;28;20028;-77
2023/08/02 13:28:49;;;;;;;3.72;1.10;;;;;;;;;;5093656;28;20045;-76
2023/08/02 13:31:15;;;;;;;5.35;1.10;;;;;;;;;;5086794;28;20042;-77
2023/08/02 13:33:45;;;;;;;3.63;1.08;;;;;;;;;;5095280;28;20023;-77
2023/08/02 13:36:10;;;;;;;4.78;1.17;;;;;;;;;;5094364;28;20095;-77
2023/08/02 13:38:36;;;;;;;8.60;1.23;;;;;;;;;;5098495;28;20021;-77
2023/08/02 13:41:02;;;;;;;3.63;1.40;;;;;;;;;;5092808;28;20023;-77
2023/08/02 13:43:27;;;;;;;6.10;1.40;;;;;;;;;;5092496;28;20038;-77
2023/08/02 13:45:53;;;;;;;3.70;1.25;;;;;;;;;;5092728;28;20534;-77
2023/08/02 13:48:18;;;;;;;2.58;1.00;;;;;;;;;;5090612;28;20078;-76
2023/08/02 13:50:44;;;;;;;3.00;1.23;;;;;;;;;;5090522;28;20031;-77
2023/08/02 13:53:09;;;;;;;2.50;1.20;;;;;;;;;;5093873;28;20031;-77
2023/08/02 13:55:34;;;;;;;2.60;1.00;;;;;;;;;;5086455;28;20178;-76
2023/08/02 13:58:00;;;;;;;2.65;1.10;;;;;;;;;;5092314;28;20039;-76
2023/08/02 14:00:25;;;;;;;3.08;1.13;;;;;;;;;;5092321;28;20047;-76
2023/08/02 14:02:51;;;;;;;3.08;1.08;;;;;;;;;;5085726;28;20077;-77
2023/08/02 14:05:16;;;;;;;1.35;0.65;;;;;;;;;;5099994;28;20106;-76
2023/08/02 14:07:42;;;;;;;4.20;0.68;;;;;;;;;;5090876;28;20031;-77
2023/08/02 14:10:08;;;;;;;3.67;0.80;;;;;;;;;;5092528;28;20028;-76
2023/08/02 14:12:35;;;;;;;3.58;0.80;;;;;;;;;;5088908;28;20036;-76
2023/08/02 14:15:01;;;;;;;6.60;0.90;;;;;;;;;;5092159;28;20024;-76
2023/08/02 14:17:27;;;;;;;3.58;0.95;;;;;;;;;;5092912;28;20089;-77
2023/08/02 14:19:52;;;;;;;2.08;0.77;;;;;;;;;;5099496;28;20468;-77
2023/08/02 14:22:17;;;;;;;3.40;0.80;;;;;;;;;;5086487;28;20060;-77
2023/08/02 14:24:43;;;;;;;2.53;0.90;;;;;;;;;;5091124;28;20021;-76
2023/08/02 14:27:10;;;;;;;4.50;0.90;;;;;;;;;;5092929;28;20046;-76
2023/08/02 14:29:37;;;;;;;3.92;0.98;;;;;;;;;;5089355;28;20491;-76
2023/08/02 14:32:05;;;;;;;2.88;0.70;;;;;;;;;;5084293;28;20074;-77
2023/08/02 14:34:31;;;;;;;3.97;1.10;;;;;;;;;;5094569;28;20051;-76
2023/08/02 14:36:56;;;;;;;2.72;0.75;;;;;;;;;;5086256;28;20431;-77
2023/08/02 14:39:22;;;;;;;2.72;0.75;;;;;;;;;;5088220;28;20383;-77
2023/08/02 14:41:47;;;;;;;2.70;0.82;;;;;;;;;;5083796;28;20108;-76